Time;durP1;ratioP1;P1;durP2;ratioP2;P2;SDS_P1;SDS_P2;PMS_P1;PMS_P2;Temp;Humidity;BMP_temperature;BMP_pressure;BME280_temperature;BME280_humidity;BME280_pressure;Samples;Min_cycle;Max_cycle;Signal;HPM_P1;HPM_P2
2022/10/13 00:04:59;;;;;;;500.70;24.23;;;;;;;7.96;67.11;100464.19;10383509;28;20045;-63
2022/10/13 00:10:00;;;;;;;408.15;19.45;;;;;;;7.92;67.48;100457.41;10383410;28;20053;-63
2022/10/13 00:15:06;;;;;;;357.65;19.88;;;;;;;7.97;67.34;100471.09;10383511;28;20045;-63
2022/10/13 00:20:09;;;;;;;419.00;30.50;;;;;;;7.81;67.31;100462.19;10382277;28;20332;-64
2022/10/13 00:25:11;;;;;;;390.45;28.30;;;;;;;7.71;67.63;100460.03;10381991;28;20474;-64
2022/10/13 00:30:13;;;;;;;257.45;17.75;;;;;;;7.68;67.94;100461.00;10383262;28;20131;-63
2022/10/13 00:35:15;;;;;;;648.85;32.78;;;;;;;7.66;67.88;100459.34;10386871;28;20057;-64
2022/10/13 00:40:16;;;;;;;277.30;17.50;;;;;;;7.79;67.98;100455.38;10390348;28;20300;-63
2022/10/13 00:45:28;;;;;;;119.78;12.35;;;;;;;7.85;67.85;100460.31;10389902;28;20045;-63
2022/10/13 00:50:38;;;;;;;77.90;10.07;;;;;;;7.88;67.95;100458.44;10389749;28;20406;-63
2022/10/13 00:55:42;;;;;;;107.15;13.07;;;;;;;7.96;67.78;100461.56;10383764;28;20053;-64
2022/10/13 01:00:47;;;;;;;93.60;10.40;;;;;;;7.97;67.56;100463.28;10389337;28;20490;-63
2022/10/13 01:05:51;;;;;;;308.58;16.95;;;;;;;7.99;67.68;100461.47;10388134;28;20061;-63
2022/10/13 01:10:59;;;;;;;143.20;15.07;;;;;;;8.01;67.55;100461.41;10371049;28;20316;-63
2022/10/13 01:16:40;;;;;;;138.13;15.15;;;;;;;7.85;67.79;100458.53;10390000;28;20050;-63
2022/10/13 01:21:57;;;;;;;157.00;14.82;;;;;;;7.86;68.00;100444.63;10387925;28;20093;-63
2022/10/13 01:27:08;;;;;;;247.43;14.50;;;;;;;7.87;68.17;100441.13;10387635;28;20053;-63
2022/10/13 01:32:28;;;;;;;364.00;14.77;;;;;;;7.81;68.19;100436.16;10388195;28;20045;-63
2022/10/13 01:37:32;;;;;;;230.18;13.55;;;;;;;7.88;67.92;100439.34;10389107;28;20392;-63
2022/10/13 01:42:52;;;;;;;256.40;15.90;;;;;;;7.83;68.15;100434.31;10388032;28;20045;-63
2022/10/13 01:47:57;;;;;;;192.52;12.32;;;;;;;7.88;67.98;100435.00;10387594;28;20049;-63
2022/10/13 01:53:02;;;;;;;260.67;15.52;;;;;;;7.92;68.12;100423.53;10386745;28;20822;-63
2022/10/13 01:58:04;;;;;;;353.83;16.65;;;;;;;7.80;68.00;100421.44;10385932;28;20405;-63
2022/10/13 02:03:31;;;;;;;249.05;16.50;;;;;;;7.60;68.67;100402.31;10390377;28;20287;-63
2022/10/13 02:08:38;;;;;;;247.52;16.67;;;;;;;7.83;68.41;100404.84;10394828;28;20390;-63
2022/10/13 02:13:53;;;;;;;279.13;19.52;;;;;;;8.00;67.97;100399.78;10394640;28;20049;-63
2022/10/13 02:18:57;;;;;;;285.98;14.73;;;;;;;8.09;67.63;100393.34;10395224;28;20060;-63
2022/10/13 02:23:58;;;;;;;415.98;25.42;;;;;;;8.00;67.57;100395.44;10392507;28;20064;-64
2022/10/13 02:29:11;;;;;;;161.93;13.00;;;;;;;7.98;68.14;100397.25;10381068;28;20057;-63
2022/10/13 02:34:14;;;;;;;224.30;14.98;;;;;;;8.13;67.80;100393.19;10394042;28;20049;-63
2022/10/13 02:39:16;;;;;;;170.80;14.50;;;;;;;8.09;67.89;100390.75;10393106;28;20072;-63
2022/10/13 02:44:19;;;;;;;197.68;13.25;;;;;;;8.14;67.85;100399.25;10393210;28;20056;-63
2022/10/13 02:49:21;;;;;;;452.75;22.13;;;;;;;8.11;67.69;100392.41;10392961;28;20422;-63
2022/10/13 02:54:23;;;;;;;241.55;15.10;;;;;;;8.11;67.42;100382.00;10392311;28;20057;-63
2022/10/13 02:59:24;;;;;;;299.05;16.40;;;;;;;8.14;67.71;100379.22;10392454;28;20053;-63
2022/10/13 03:04:27;;;;;;;512.85;22.90;;;;;;;8.17;67.46;100375.66;10388772;28;20072;-63
2022/10/13 03:09:29;;;;;;;166.63;15.23;;;;;;;8.22;67.53;100373.72;10384294;28;20417;-62
2022/10/13 03:14:30;;;;;;;143.80;14.65;;;;;;;8.27;67.45;100379.56;10386118;28;20497;-63
2022/10/13 03:19:32;;;;;;;72.70;12.32;;;;;;;8.28;67.30;100374.28;10384658;28;20058;-63
2022/10/13 03:24:34;;;;;;;124.75;13.85;;;;;;;8.24;67.34;100371.91;10385546;28;20054;-62
2022/10/13 03:29:35;;;;;;;140.65;13.63;;;;;;;8.18;67.59;100372.97;10383802;28;20065;-63
2022/10/13 03:34:37;;;;;;;184.88;17.23;;;;;;;8.11;67.85;100383.75;10385453;28;20041;-63
2022/10/13 03:39:38;;;;;;;92.72;11.55;;;;;;;8.13;67.79;100374.94;10384377;28;20053;-62
2022/10/13 03:44:40;;;;;;;127.53;12.52;;;;;;;8.18;67.77;100382.59;10383939;28;20498;-63
2022/10/13 03:49:42;;;;;;;286.55;17.63;;;;;;;8.17;68.03;100388.69;10383699;28;20066;-63
2022/10/13 03:54:43;;;;;;;134.57;13.45;;;;;;;8.25;67.89;100389.19;10384637;28;20053;-63
2022/10/13 03:59:45;;;;;;;358.60;17.77;;;;;;;8.29;67.67;100389.00;10384928;28;20573;-63
2022/10/13 04:04:46;;;;;;;217.15;14.68;;;;;;;8.21;67.55;100395.47;10384406;28;20049;-63
2022/10/13 04:09:48;;;;;;;365.65;24.77;;;;;;;8.19;67.95;100392.06;10389508;28;20045;-63
2022/10/13 04:14:50;;;;;;;227.02;17.45;;;;;;;8.16;67.81;100387.84;10391398;28;20034;-63
2022/10/13 04:19:52;;;;;;;160.52;15.88;;;;;;;8.19;68.00;100387.72;10391372;28;20069;-63
2022/10/13 04:24:53;;;;;;;276.80;20.13;;;;;;;8.02;68.11;100388.41;10391334;28;20124;-63
2022/10/13 04:29:55;;;;;;;409.88;24.90;;;;;;;7.98;68.26;100384.22;10391977;28;20054;-63
2022/10/13 04:34:57;;;;;;;480.67;34.13;;;;;;;7.97;68.42;100374.72;10390976;28;20045;-63
2022/10/13 04:39:58;;;;;;;298.27;33.80;;;;;;;8.04;68.21;100368.34;10391485;28;20064;-63
2022/10/13 04:45:00;;;;;;;404.70;33.17;;;;;;;7.96;68.24;100367.81;10391546;28;20049;-63
2022/10/13 04:50:02;;;;;;;287.77;24.92;;;;;;;7.85;68.58;100351.78;10391640;28;20045;-63
2022/10/13 04:55:04;;;;;;;389.25;34.92;;;;;;;7.95;68.54;100353.13;10388999;28;20049;-63
2022/10/13 05:00:07;;;;;;;643.10;26.63;;;;;;;7.93;68.32;100341.91;10390281;28;20450;-63
2022/10/13 05:05:09;;;;;;;280.60;24.55;;;;;;;7.78;68.62;100334.75;10390484;28;20041;-63
2022/10/13 05:10:11;;;;;;;365.75;19.30;;;;;;;7.91;68.69;100337.69;10389697;28;20048;-63
2022/10/13 05:15:12;;;;;;;555.67;31.40;;;;;;;7.78;68.71;100337.34;10390566;28;20045;-63
2022/10/13 05:20:15;;;;;;;393.38;24.08;;;;;;;7.73;68.82;100326.25;10388886;28;20049;-62
2022/10/13 05:25:17;;;;;;;364.30;34.17;;;;;;;7.79;68.77;100319.97;10389223;28;20045;-63
2022/10/13 05:30:19;;;;;;;398.48;33.72;;;;;;;7.76;68.81;100309.66;10388963;28;20052;-63
2022/10/13 05:35:20;;;;;;;156.43;25.40;;;;;;;7.69;68.94;100316.88;10389360;28;20410;-63
2022/10/13 05:40:22;;;;;;;256.20;26.58;;;;;;;7.69;69.05;100323.88;10389525;28;20041;-63
2022/10/13 05:45:26;;;;;;;347.40;24.95;;;;;;;7.69;68.89;100318.66;10387002;28;20087;-63
2022/10/13 05:50:28;;;;;;;144.57;25.70;;;;;;;7.84;69.04;100329.28;10388074;28;20049;-63
2022/10/13 05:55:30;;;;;;;306.38;29.27;;;;;;;7.92;68.85;100323.72;10388293;28;20686;-63
2022/10/13 06:00:31;;;;;;;307.50;35.50;;;;;;;8.10;68.68;100332.53;10388070;28;20060;-62
2022/10/13 06:05:33;;;;;;;141.55;22.92;;;;;;;8.15;68.54;100335.81;10387431;28;20080;-63
2022/10/13 06:10:38;;;;;;;122.05;22.33;;;;;;;8.14;68.50;100336.72;10387591;28;20358;-63
2022/10/13 06:15:40;;;;;;;272.38;30.73;;;;;;;8.21;68.51;100328.56;10387054;28;20061;-64
2022/10/13 06:20:42;;;;;;;150.10;22.85;;;;;;;8.25;68.09;100324.06;10387575;28;20064;-64
2022/10/13 06:25:51;;;;;;;763.58;49.00;;;;;;;8.04;68.70;100325.81;10387668;28;20049;-64
2022/10/13 06:30:55;;;;;;;411.48;31.35;;;;;;;8.11;68.37;100324.69;10385873;28;20057;-64
2022/10/13 06:36:01;;;;;;;183.77;25.35;;;;;;;8.11;68.54;100327.28;10387263;28;20057;-63
2022/10/13 06:41:04;;;;;;;247.52;30.58;;;;;;;8.26;68.23;100323.16;10387031;28;20057;-62
2022/10/13 06:46:06;;;;;;;220.43;26.13;;;;;;;8.34;68.14;100316.72;10384970;28;20057;-64
2022/10/13 06:51:10;;;;;;;132.38;24.60;;;;;;;8.35;67.98;100325.34;10379498;28;20041;-65
2022/10/13 06:56:13;;;;;;;495.45;43.92;;;;;;;8.28;68.28;100323.94;10384889;28;21386;-64
2022/10/13 07:01:14;;;;;;;273.38;28.48;;;;;;;8.46;68.09;100317.91;10382401;28;20127;-64
2022/10/13 07:06:17;;;;;;;89.13;23.55;;;;;;;8.59;67.83;100306.84;10383333;28;20041;-72
2022/10/13 07:11:18;;;;;;;147.25;24.60;;;;;;;8.62;67.57;100303.25;10385009;28;20248;-73
2022/10/13 07:16:20;;;;;;;227.55;30.50;;;;;;;8.70;67.50;100301.16;10385931;28;20049;-73
2022/10/13 07:21:22;;;;;;;152.98;21.02;;;;;;;8.73;67.22;100298.38;10386409;28;20594;-73
2022/10/13 07:26:23;;;;;;;78.65;22.65;;;;;;;8.68;67.44;100308.19;10386989;28;20076;-73
2022/10/13 07:31:25;;;;;;;49.78;22.75;;;;;;;8.76;67.53;100300.88;10386032;28;20045;-73
2022/10/13 07:36:27;;;;;;;47.92;24.08;;;;;;;8.89;67.30;100308.97;10386271;28;20489;-74
2022/10/13 07:41:29;;;;;;;41.80;21.40;;;;;;;8.89;67.17;100307.22;10386947;28;20057;-73
2022/10/13 07:46:30;;;;;;;37.70;21.02;;;;;;;8.93;66.96;100306.16;10391652;28;20049;-73
2022/10/13 07:51:32;;;;;;;42.08;23.55;;;;;;;9.17;66.87;100302.38;10393992;28;20053;-73
2022/10/13 07:56:34;;;;;;;48.03;25.50;;;;;;;9.11;66.74;100307.03;10394203;28;20516;-73
2022/10/13 08:01:35;;;;;;;44.47;22.55;;;;;;;9.06;66.77;100307.25;10393869;28;20061;-73
2022/10/13 08:06:37;;;;;;;53.17;25.45;;;;;;;9.21;66.80;100301.31;10391325;28;20135;-74
2022/10/13 08:11:42;;;;;;;50.65;25.90;;;;;;;9.16;66.67;100299.81;10392621;28;21142;-73
2022/10/13 08:16:44;;;;;;;36.63;22.05;;;;;;;9.10;66.81;100297.50;10393374;28;20057;-73
2022/10/13 08:21:52;;;;;;;56.78;26.13;;;;;;;9.06;66.87;100296.81;10392792;28;20045;-72
2022/10/13 08:26:59;;;;;;;37.80;22.17;;;;;;;9.05;67.17;100294.28;10376005;28;20128;-73
2022/10/13 08:32:01;;;;;;;37.40;22.92;;;;;;;9.15;66.92;100296.38;10390337;28;20520;-73
2022/10/13 08:37:03;;;;;;;30.02;19.58;;;;;;;9.41;66.58;100298.56;10373202;28;20493;-73
2022/10/13 08:42:17;;;;;;;36.40;21.55;;;;;;;9.47;65.88;100300.88;10389304;28;20049;-74
2022/10/13 08:47:29;;;;;;;33.10;19.73;;;;;;;9.40;66.48;100303.88;10389599;28;20038;-74
2022/10/13 08:52:54;;;;;;;29.63;20.05;;;;;;;9.65;65.89;100293.88;10388364;28;20449;-73
2022/10/13 08:57:56;;;;;;;31.20;19.70;;;;;;;9.75;65.73;100295.13;10390856;28;20046;-73
2022/10/13 09:03:28;;;;;;;34.22;21.35;;;;;;;9.88;65.66;100287.53;10391219;28;20088;-72
2022/10/13 09:08:38;;;;;;;32.28;19.70;;;;;;;9.97;65.85;100297.53;10390179;28;20510;-73
2022/10/13 09:13:39;;;;;;;32.60;20.73;;;;;;;9.95;65.68;100292.34;10391326;28;20053;-73
2022/10/13 09:18:41;;;;;;;32.45;20.35;;;;;;;10.03;65.44;100297.22;10391057;28;20053;-72
2022/10/13 09:23:42;;;;;;;35.78;21.17;;;;;;;10.07;65.30;100275.22;10390502;28;20056;-73
2022/10/13 09:28:44;;;;;;;32.10;20.80;;;;;;;10.15;65.51;100267.81;10389319;28;20053;-74
2022/10/13 09:33:58;;;;;;;32.70;20.65;;;;;;;10.43;65.15;100268.03;10389910;28;20057;-73
2022/10/13 09:39:18;;;;;;;26.40;17.33;;;;;;;10.59;64.09;100284.59;10388769;28;20049;-73
2022/10/13 09:44:29;;;;;;;29.33;18.00;;;;;;;10.79;63.89;100279.09;10390386;28;20053;-73
2022/10/13 09:49:43;;;;;;;26.98;18.27;;;;;;;10.79;64.18;100279.09;10389779;28;20601;-73
2022/10/13 09:54:51;;;;;;;24.90;17.75;;;;;;;10.90;63.69;100265.44;10389272;28;20556;-73
2022/10/13 09:59:57;;;;;;;28.50;18.77;;;;;;;11.13;63.43;100246.72;10387345;28;20054;-72
2022/10/13 10:05:06;;;;;;;22.52;16.98;;;;;;;11.53;62.39;100245.22;10388503;28;20065;-72
2022/10/13 10:10:33;;;;;;;26.35;18.10;;;;;;;11.80;61.64;100241.84;10389387;28;21154;-72
2022/10/13 10:15:59;;;;;;;29.40;18.63;;;;;;;12.07;61.48;100241.94;10384942;28;20608;-73
2022/10/13 10:21:15;;;;;;;26.65;19.02;;;;;;;12.27;61.39;100236.34;10382254;28;20215;-75
2022/10/13 10:26:24;;;;;;;23.80;18.00;;;;;;;12.50;60.81;100233.13;10385873;28;20034;-75
2022/10/13 10:31:50;;;;;;;22.48;16.40;;;;;;;12.06;61.42;100237.63;10385675;28;20135;-74
2022/10/13 10:37:07;;;;;;;23.85;18.08;;;;;;;12.18;61.30;100225.53;10384543;28;20045;-73
2022/10/13 10:42:35;;;;;;;24.33;16.73;;;;;;;12.17;60.49;100229.97;10387221;28;20241;-73
2022/10/13 10:47:42;;;;;;;24.45;16.38;;;;;;;12.44;60.68;100212.53;10385006;28;20133;-74
2022/10/13 10:52:46;;;;;;;21.95;15.23;;;;;;;12.73;60.04;100205.44;10383110;28;20103;-74
2022/10/13 10:58:07;;;;;;;22.73;15.65;;;;;;;12.80;59.37;100196.25;10384824;28;20053;-74
2022/10/13 11:03:31;;;;;;;19.73;14.67;;;;;;;13.07;58.88;100193.59;10386240;28;20056;-73
2022/10/13 11:08:36;;;;;;;22.38;14.70;;;;;;;13.23;59.05;100181.16;10370931;28;20069;-73
2022/10/13 11:13:51;;;;;;;19.70;14.55;;;;;;;13.40;58.54;100167.69;10385707;28;20057;-73
2022/10/13 11:18:53;;;;;;;19.05;14.32;;;;;;;13.61;58.76;100161.88;10385177;28;20395;-75
2022/10/13 11:23:55;;;;;;;18.65;13.55;;;;;;;13.78;58.04;100155.44;10386032;28;20054;-75
2022/10/13 11:29:02;;;;;;;19.75;13.82;;;;;;;13.71;58.11;100154.19;10384352;28;20119;-75
2022/10/13 11:34:25;;;;;;;18.45;13.63;;;;;;;13.78;57.61;100134.41;10384455;28;20045;-74
2022/10/13 11:39:45;;;;;;;19.40;13.18;;;;;;;14.24;57.52;100135.50;10385512;28;20061;-75
2022/10/13 11:45:03;;;;;;;19.80;12.93;;;;;;;14.22;57.44;100133.91;10385652;28;20049;-73
2022/10/13 11:50:43;;;;;;;17.27;13.05;;;;;;;14.31;57.25;100123.56;10383903;28;20061;-74
2022/10/13 11:55:47;;;;;;;19.27;12.55;;;;;;;14.60;56.55;100116.22;10380784;28;20049;-72
2022/10/13 12:01:01;;;;;;;17.92;11.93;;;;;;;14.94;56.10;100098.78;10380321;28;20058;-72
2022/10/13 12:06:32;;;;;;;16.63;12.30;;;;;;;15.16;55.74;100098.84;10383067;28;20046;-73
2022/10/13 12:11:37;;;;;;;15.98;11.30;;;;;;;14.93;55.52;100089.19;10380079;28;20049;-72
2022/10/13 12:16:52;;;;;;;17.67;11.25;;;;;;;14.93;55.84;100083.91;10383117;28;20053;-73
2022/10/13 12:21:59;;;;;;;18.65;12.27;;;;;;;14.98;56.43;100079.97;10381587;28;20140;-72
2022/10/13 12:27:11;;;;;;;15.65;11.40;;;;;;;14.99;56.65;100073.75;10371567;28;20402;-73
2022/10/13 12:32:26;;;;;;;18.30;11.93;;;;;;;15.20;55.66;100063.41;10373607;28;20052;-72
2022/10/13 12:37:32;;;;;;;15.82;10.55;;;;;;;15.34;55.71;100071.06;10382802;28;20057;-72
2022/10/13 12:42:36;;;;;;;14.85;10.00;;;;;;;15.63;55.49;100060.94;10386776;28;20053;-73
2022/10/13 12:47:44;;;;;;;14.13;9.70;;;;;;;15.81;55.00;100054.22;10391429;28;20505;-73
2022/10/13 12:52:45;;;;;;;12.98;9.63;;;;;;;16.17;54.34;100059.19;10388966;28;20056;-73
2022/10/13 12:57:51;;;;;;;14.45;10.95;;;;;;;16.11;54.14;100049.97;10387194;28;20445;-73
2022/10/13 13:03:05;;;;;;;16.30;10.80;;;;;;;16.03;54.26;100055.03;10390114;28;20140;-73
2022/10/13 13:08:40;;;;;;;17.63;10.98;;;;;;;15.91;54.79;100050.72;10390052;28;20128;-74
2022/10/13 13:13:42;;;;;;;17.67;10.57;;;;;;;15.97;54.93;100047.59;10376653;28;20052;-73
2022/10/13 13:18:47;;;;;;;17.45;9.98;;;;;;;15.84;55.31;100044.25;10380049;28;20045;-73
2022/10/13 13:23:48;;;;;;;17.63;9.98;;;;;;;15.69;55.50;100042.84;10388696;28;20068;-73
2022/10/13 13:28:55;;;;;;;19.05;10.50;;;;;;;15.65;55.86;100036.13;10388307;28;20132;-73
2022/10/13 13:33:57;;;;;;;17.42;9.75;;;;;;;15.73;55.90;100024.97;10389311;28;20065;-72
2022/10/13 13:38:58;;;;;;;15.95;9.73;;;;;;;16.02;55.06;100024.31;10389179;28;20313;-72
2022/10/13 13:44:00;;;;;;;16.67;9.30;;;;;;;16.26;55.23;100023.28;10387454;28;20053;-73
2022/10/13 13:49:02;;;;;;;16.70;9.90;;;;;;;16.40;55.07;100017.72;10387436;28;20045;-72
2022/10/13 13:54:05;;;;;;;14.95;9.30;;;;;;;16.51;55.02;100004.50;10386544;28;20057;-72
2022/10/13 13:59:07;;;;;;;17.23;9.48;;;;;;;16.47;54.97;100000.44;10386252;28;20045;-72
2022/10/13 14:04:08;;;;;;;18.25;9.13;;;;;;;16.41;55.18;99999.09;10386037;28;20057;-73
2022/10/13 14:09:10;;;;;;;17.70;8.55;;;;;;;16.50;55.56;99987.81;10383853;28;20052;-72
2022/10/13 14:14:12;;;;;;;15.20;8.05;;;;;;;16.51;55.44;99992.13;10386972;28;20061;-73
2022/10/13 14:19:13;;;;;;;17.70;7.75;;;;;;;16.31;56.27;99994.69;10386712;28;20050;-72
2022/10/13 14:24:15;;;;;;;17.23;7.85;;;;;;;16.31;56.75;99994.69;10386559;28;20575;-72
2022/10/13 14:29:16;;;;;;;14.85;8.50;;;;;;;16.12;57.11;99990.13;10385079;28;20052;-72
2022/10/13 14:34:19;;;;;;;12.95;8.07;;;;;;;16.08;56.88;99978.97;10387559;28;20323;-71
2022/10/13 14:39:21;;;;;;;17.30;8.50;;;;;;;16.21;56.41;99970.88;10382973;28;20053;-72
2022/10/13 14:44:22;;;;;;;13.95;7.85;;;;;;;16.45;56.49;99975.94;10385384;28;20053;-72
2022/10/13 14:49:24;;;;;;;17.77;8.13;;;;;;;16.63;56.39;99969.97;10386807;28;20393;-71
2022/10/13 14:54:26;;;;;;;19.27;8.15;;;;;;;16.62;56.83;99970.13;10384797;28;20502;-72
2022/10/13 14:59:27;;;;;;;10.90;7.63;;;;;;;16.54;57.35;99967.28;10386746;28;20056;-72
2022/10/13 15:04:29;;;;;;;19.77;8.30;;;;;;;16.49;57.46;99964.19;10385015;28;20050;-72
2022/10/13 15:09:31;;;;;;;15.52;7.03;;;;;;;16.31;57.81;99968.31;10383630;28;20056;-73
2022/10/13 15:14:53;;;;;;;13.57;7.45;;;;;;;16.18;58.84;99964.03;10383799;28;20068;-73
2022/10/13 15:19:55;;;;;;;15.05;9.00;;;;;;;16.23;58.51;99966.31;10386575;28;20346;-71
2022/10/13 15:24:57;;;;;;;20.05;8.90;;;;;;;16.30;58.77;99969.28;10386389;28;20064;-72
2022/10/13 15:29:58;;;;;;;11.63;7.70;;;;;;;16.30;59.21;99956.94;10385795;28;20045;-72
2022/10/13 15:35:00;;;;;;;14.02;7.38;;;;;;;16.14;59.02;99967.91;10384682;28;20088;-72
2022/10/13 15:40:02;;;;;;;15.25;6.80;;;;;;;16.06;59.20;99965.06;10384251;28;20053;-72
2022/10/13 15:45:04;;;;;;;14.25;7.05;;;;;;;15.91;60.63;99962.84;10383189;28;20225;-71
2022/10/13 15:50:11;;;;;;;14.20;6.57;;;;;;;15.75;60.79;99959.78;10385081;28;20548;-71
2022/10/13 15:55:13;;;;;;;14.13;6.32;;;;;;;15.63;60.84;99955.47;10385035;28;20079;-71
2022/10/13 16:00:15;;;;;;;13.18;7.10;;;;;;;15.55;61.86;99968.44;10383518;28;20053;-73
2022/10/13 16:05:18;;;;;;;13.70;8.50;;;;;;;15.39;62.50;99977.50;10389667;28;20041;-73
2022/10/13 16:10:20;;;;;;;17.38;10.00;;;;;;;15.19;63.71;99995.84;10392051;28;20049;-72
2022/10/13 16:15:21;;;;;;;11.45;6.30;;;;;;;14.97;63.71;99996.66;10390843;28;20489;-72
2022/10/13 16:20:23;;;;;;;15.32;7.85;;;;;;;14.72;64.28;99990.72;10390708;28;20052;-72
2022/10/13 16:25:24;;;;;;;13.75;9.05;;;;;;;14.64;64.50;99990.47;10390153;28;20049;-71
2022/10/13 16:30:27;;;;;;;16.42;8.90;;;;;;;14.59;64.85;99989.03;10388058;28;20061;-72
2022/10/13 16:35:29;;;;;;;19.77;8.93;;;;;;;14.55;64.77;99989.41;10388973;28;20477;-72
2022/10/13 16:40:31;;;;;;;16.77;10.32;;;;;;;14.51;64.99;99993.22;10390200;28;20543;-73
2022/10/13 16:45:33;;;;;;;18.30;10.98;;;;;;;14.42;65.33;99986.81;10389979;28;20057;-73
2022/10/13 16:50:54;;;;;;;21.25;12.00;;;;;;;14.30;66.03;99990.34;10390125;28;20108;-73
2022/10/13 16:55:56;;;;;;;22.65;12.57;;;;;;;14.27;66.21;99993.19;10389861;28;20490;-72
2022/10/13 17:01:07;;;;;;;20.58;13.27;;;;;;;14.24;66.30;99993.44;10389977;28;20050;-73
2022/10/13 17:06:09;;;;;;;15.82;9.15;;;;;;;14.24;66.20;99998.69;10389796;28;20743;-73
2022/10/13 17:11:18;;;;;;;13.20;8.65;;;;;;;14.21;66.24;100001.53;10391506;28;20045;-73
2022/10/13 17:16:19;;;;;;;20.33;12.73;;;;;;;14.19;66.36;99997.34;10388479;28;20410;-73
2022/10/13 17:21:21;;;;;;;18.27;11.48;;;;;;;14.08;66.34;99998.16;10389616;28;20124;-73
2022/10/13 17:26:23;;;;;;;22.35;13.85;;;;;;;14.05;66.71;99994.88;10388081;28;20057;-74
2022/10/13 17:31:25;;;;;;;19.05;12.65;;;;;;;14.01;66.74;99996.91;10379859;28;20053;-65
2022/10/13 17:36:30;;;;;;;26.08;15.98;;;;;;;14.00;67.18;99995.25;10388258;28;20049;-65
2022/10/13 17:41:32;;;;;;;26.83;17.58;;;;;;;13.96;67.15;99995.56;10389419;28;20085;-65
2022/10/13 17:46:34;;;;;;;64.25;32.72;;;;;;;13.87;67.29;99994.44;10388691;28;20055;-65
2022/10/13 17:51:40;;;;;;;275.52;48.33;;;;;;;13.85;67.67;99979.72;10389501;28;20058;-66
2022/10/13 17:56:42;;;;;;;46.63;28.35;;;;;;;13.75;67.77;99987.44;10388591;28;20055;-65
2022/10/13 18:01:46;;;;;;;45.03;26.65;;;;;;;13.70;68.11;99986.91;10376064;28;20053;-64
2022/10/13 18:07:06;;;;;;;40.60;22.15;;;;;;;13.69;68.04;99980.00;10373936;28;20400;-64
2022/10/13 18:12:08;;;;;;;34.92;19.23;;;;;;;13.67;68.06;99981.91;10386818;28;20045;-65
2022/10/13 18:17:10;;;;;;;45.92;21.67;;;;;;;13.69;68.23;99988.72;10387087;28;20045;-64
2022/10/13 18:22:12;;;;;;;34.33;19.25;;;;;;;13.71;67.93;99985.97;10386520;28;20080;-65
2022/10/13 18:27:14;;;;;;;33.53;19.95;;;;;;;13.65;68.23;99994.31;10385518;28;20255;-65
2022/10/13 18:32:16;;;;;;;27.42;17.98;;;;;;;13.57;68.32;99994.00;10383085;28;20405;-65
2022/10/13 18:37:18;;;;;;;29.02;18.25;;;;;;;13.51;68.84;100000.53;10384504;28;20046;-65
2022/10/13 18:42:20;;;;;;;26.83;15.43;;;;;;;13.51;68.57;100005.81;10383728;28;20141;-65
2022/10/13 18:47:22;;;;;;;25.83;17.25;;;;;;;13.53;68.72;100006.53;10384537;28;20051;-65
2022/10/13 18:52:24;;;;;;;25.92;17.17;;;;;;;13.52;68.57;100009.25;10384461;28;20050;-65
2022/10/13 18:57:26;;;;;;;24.90;16.10;;;;;;;13.53;68.73;100006.53;10385847;28;20096;-65
2022/10/13 19:02:29;;;;;;;24.75;13.95;;;;;;;13.52;68.36;100017.13;10383772;28;20061;-65
2022/10/13 19:07:31;;;;;;;31.10;19.45;;;;;;;13.53;68.91;100005.69;10383928;28;20049;-64
2022/10/13 19:12:39;;;;;;;28.02;21.48;;;;;;;13.37;68.97;100000.63;10383028;28;20062;-66
2022/10/13 19:17:41;;;;;;;37.70;22.92;;;;;;;13.36;68.98;100004.22;10385078;28;20049;-66
2022/10/13 19:22:43;;;;;;;24.13;19.10;;;;;;;13.37;69.13;100002.44;10385556;28;20445;-65
2022/10/13 19:27:45;;;;;;;28.77;17.80;;;;;;;13.31;68.94;100001.03;10385225;28;20060;-65
2022/10/13 19:32:47;;;;;;;26.13;18.70;;;;;;;13.28;68.99;100001.28;10380446;28;20053;-64
2022/10/13 19:37:49;;;;;;;21.05;14.30;;;;;;;13.27;69.15;99991.69;10381113;28;20056;-65
2022/10/13 19:42:51;;;;;;;19.98;13.88;;;;;;;13.30;69.01;99993.28;10390981;28;20195;-67
2022/10/13 19:47:53;;;;;;;24.90;14.57;;;;;;;13.34;68.71;100000.00;10388937;28;20050;-65
2022/10/13 19:52:56;;;;;;;20.60;13.63;;;;;;;13.30;68.63;100007.25;10391546;28;20045;-65
2022/10/13 19:57:58;;;;;;;20.35;12.82;;;;;;;13.20;69.21;100014.09;10392847;28;20041;-65
2022/10/13 20:03:01;;;;;;;19.48;13.50;;;;;;;13.18;69.40;100010.75;10389947;28;20053;-65
2022/10/13 20:08:03;;;;;;;18.70;11.80;;;;;;;13.31;68.95;100005.47;10390591;28;20053;-65
2022/10/13 20:13:06;;;;;;;15.98;10.85;;;;;;;13.26;68.88;100012.81;10392483;28;20054;-65
2022/10/13 20:18:11;;;;;;;18.73;10.68;;;;;;;13.12;69.05;100007.69;10392515;28;20049;-65
2022/10/13 20:23:14;;;;;;;15.35;10.15;;;;;;;13.10;69.20;100012.22;10391222;28;20061;-65
2022/10/13 20:28:16;;;;;;;21.45;12.35;;;;;;;13.19;69.06;100015.03;10389620;28;20091;-65
2022/10/13 20:33:18;;;;;;;18.65;11.07;;;;;;;13.19;68.92;100014.22;10390685;28;20055;-65
2022/10/13 20:38:20;;;;;;;11.50;9.15;;;;;;;13.20;68.86;100014.09;10390889;28;20336;-65
2022/10/13 20:43:21;;;;;;;17.00;10.00;;;;;;;13.21;68.85;100013.13;10389891;28;20065;-64
2022/10/13 20:48:30;;;;;;;15.68;10.80;;;;;;;13.17;69.08;100008.22;10385515;28;20537;-65
2022/10/13 20:53:52;;;;;;;11.73;8.07;;;;;;;13.13;69.10;100010.19;10388754;28;20037;-65
2022/10/13 20:58:53;;;;;;;16.02;9.48;;;;;;;13.12;69.22;100023.44;10390577;28;20045;-64
2022/10/13 21:03:55;;;;;;;15.20;9.48;;;;;;;13.11;69.12;100014.72;10389801;28;20064;-65
2022/10/13 21:08:57;;;;;;;18.00;10.00;;;;;;;13.04;69.39;100017.88;10390049;28;20414;-65
2022/10/13 21:14:05;;;;;;;16.17;9.88;;;;;;;12.96;69.66;100019.22;10388915;28;20049;-64
2022/10/13 21:19:07;;;;;;;17.88;9.68;;;;;;;12.92;69.62;100020.38;10387666;28;20049;-65
2022/10/13 21:24:09;;;;;;;14.45;9.05;;;;;;;12.91;69.78;100021.34;10388458;28;20140;-64
2022/10/13 21:29:11;;;;;;;18.02;9.98;;;;;;;12.86;70.03;100014.72;10388709;28;20057;-65
2022/10/13 21:34:13;;;;;;;15.65;9.70;;;;;;;12.94;69.89;100022.94;10389281;28;20049;-63
2022/10/13 21:39:15;;;;;;;15.18;9.63;;;;;;;12.93;69.88;100022.09;10387461;28;20179;-64
2022/10/13 21:44:17;;;;;;;18.05;10.30;;;;;;;12.95;69.87;100025.44;10389049;28;20443;-64
2022/10/13 21:49:19;;;;;;;20.13;12.13;;;;;;;12.89;69.87;100017.97;10389014;28;20050;-64
2022/10/13 21:54:20;;;;;;;22.27;12.45;;;;;;;12.86;70.20;100010.31;10384140;28;20049;-64
2022/10/13 21:59:22;;;;;;;24.48;13.15;;;;;;;12.83;70.32;100014.94;10388498;28;20045;-64
2022/10/13 22:04:24;;;;;;;19.98;13.07;;;;;;;12.66;70.56;100015.25;10385708;28;20069;-64
2022/10/13 22:09:26;;;;;;;20.35;12.52;;;;;;;12.56;71.01;100006.28;10387082;28;20119;-65
2022/10/13 22:14:28;;;;;;;22.08;13.98;;;;;;;12.63;70.81;100005.78;10386183;28;20788;-64
2022/10/13 22:19:30;;;;;;;25.80;12.43;;;;;;;12.67;70.50;100004.63;10385585;28;20057;-64
2022/10/13 22:24:32;;;;;;;22.23;12.75;;;;;;;12.76;70.27;100009.25;10385871;28;20053;-64
2022/10/13 22:29:34;;;;;;;16.70;11.30;;;;;;;12.80;70.08;99994.97;10376693;28;20096;-65
2022/10/13 22:34:36;;;;;;;20.92;11.80;;;;;;;12.75;70.29;99996.22;10385959;28;20627;-64
2022/10/13 22:39:37;;;;;;;17.25;11.15;;;;;;;12.80;70.30;99994.16;10383869;28;20061;-64
2022/10/13 22:44:39;;;;;;;18.95;11.15;;;;;;;12.79;70.19;99998.56;10385034;28;20053;-65
2022/10/13 22:49:41;;;;;;;15.43;10.63;;;;;;;12.71;70.43;99995.59;10385711;28;20072;-64
2022/10/13 22:54:43;;;;;;;20.33;11.55;;;;;;;12.66;70.61;99997.69;10378184;28;20060;-65
2022/10/13 22:59:45;;;;;;;16.83;11.30;;;;;;;12.73;70.42;99991.09;10382823;28;20312;-64